Terminal Aerodrome Forecast
Issued by NWS

Home | Current Version | Previous Version | Text Only | Print | Product List | Glossary On
Versions: 1 2 3 4 5 6 7 8 9 10 11 12 13 14 15 16 17 18 19 20
314
FTUS43 KICT 202329
TAFRSL
TAF
KRSL 202329Z 2100/2124 34012KT P6SM SCT100
     FM210100 36009KT P6SM SKC
     FM211700 05008KT P6SM SCT080
     FM212000 06008KT P6SM BKN060=

USA.gov is the U.S. government's official web portal to all federal, state and local government web resources and services.